Terminal Aerodrome Forecast
Issued by NWS

Home | Current Version | Previous Version | Text Only | Print | Product List | Glossary On
Versions: 1 2 3 4 5 6 7 8 9 10 11 12 13 14 15 16 17 18 19 20 21
791
FTUS45 KFGZ 190520
TAFSEZ
TAF
KSEZ 190520Z 1906/2006 VRB06KT P6SM SCT035 OVC050
     FM190900 VRB06KT P6SM VCSH SCT035 OVC050
     FM191400 21010G18KT 3SM -RA BR BKN015 OVC025
     FM192200 21010KT 1SM RA BR VV010=

USA.gov is the U.S. government's official web portal to all federal, state and local government web resources and services.